Time;durP1;ratioP1;P1;durP2;ratioP2;P2;SDS_P1;SDS_P2;PMS_P1;PMS_P2;Temp;Humidity;BMP_temperature;BMP_pressure;BME280_temperature;BME280_humidity;BME280_pressure;Samples;Min_cycle;Max_cycle;Signal;HPM_P1;HPM_P2
2022/07/15 00:03:56;;;;;;;2.58;1.30;;;;;;;;;;8281550;28;20152;-59
2022/07/15 00:07:58;;;;;;;3.60;1.42;;;;;;;;;;8283604;28;20034;-59
2022/07/15 00:11:58;;;;;;;6.15;1.60;;;;;;;;;;8284465;28;20028;-59
2022/07/15 00:15:59;;;;;;;6.50;1.55;;;;;;;;;;8285851;28;20391;-60
2022/07/15 00:19:59;;;;;;;3.05;1.38;;;;;;;;;;8280852;28;20118;-60
2022/07/15 00:23:59;;;;;;;4.82;1.52;;;;;;;;;;8284467;28;20052;-61
2022/07/15 00:28:03;;;;;;;4.15;1.50;;;;;;;;;;8282142;28;20546;-59
2022/07/15 00:32:03;;;;;;;5.07;1.60;;;;;;;;;;8284175;28;20060;-59
2022/07/15 00:36:04;;;;;;;4.47;1.40;;;;;;;;;;8281183;28;20048;-61
2022/07/15 00:40:04;;;;;;;4.70;1.50;;;;;;;;;;8284615;28;20118;-60
2022/07/15 00:44:05;;;;;;;2.45;1.30;;;;;;;;;;8284629;28;20032;-59
2022/07/15 00:48:06;;;;;;;2.58;1.40;;;;;;;;;;8282123;28;20492;-59
2022/07/15 00:52:06;;;;;;;4.35;1.60;;;;;;;;;;8279808;28;20136;-60
2022/07/15 00:56:08;;;;;;;3.65;1.80;;;;;;;;;;8281522;28;20528;-59
2022/07/15 01:00:11;;;;;;;3.78;1.60;;;;;;;;;;8282269;28;20029;-59
2022/07/15 01:04:12;;;;;;;3.38;1.48;;;;;;;;;;8279765;28;20085;-59
2022/07/15 01:08:13;;;;;;;3.10;1.50;;;;;;;;;;8282655;28;20054;-59
2022/07/15 01:12:14;;;;;;;3.42;1.42;;;;;;;;;;8280320;28;20391;-59
2022/07/15 01:16:14;;;;;;;5.45;1.67;;;;;;;;;;8280443;28;20107;-60
2022/07/15 01:20:16;;;;;;;2.80;1.45;;;;;;;;;;8282556;28;20030;-60
2022/07/15 01:24:16;;;;;;;2.03;1.20;;;;;;;;;;8280368;28;20114;-59
2022/07/15 01:28:16;;;;;;;4.78;1.42;;;;;;;;;;8279303;28;20728;-59
2022/07/15 01:32:16;;;;;;;2.57;1.50;;;;;;;;;;8278055;28;20083;-60
2022/07/15 01:36:17;;;;;;;4.13;1.60;;;;;;;;;;8283413;28;20018;-59
2022/07/15 01:40:17;;;;;;;6.50;1.60;;;;;;;;;;8283619;28;20302;-59
2022/07/15 01:44:17;;;;;;;3.83;1.50;;;;;;;;;;8282257;28;20022;-60
2022/07/15 01:52:36;;;;;;;2.58;1.40;;;;;;;;;;8288235;28;20052;-59
2022/07/15 01:56:37;;;;;;;3.50;1.42;;;;;;;;;;8286609;28;20537;-59
2022/07/15 02:00:37;;;;;;;2.10;1.30;;;;;;;;;;8285824;28;20188;-58
2022/07/15 02:04:37;;;;;;;8.15;1.48;;;;;;;;;;8285500;28;20049;-59
2022/07/15 02:08:38;;;;;;;3.00;1.30;;;;;;;;;;8286020;28;20029;-60
2022/07/15 02:12:38;;;;;;;2.42;1.50;;;;;;;;;;8283421;28;20469;-59
2022/07/15 02:16:38;;;;;;;3.78;1.63;;;;;;;;;;8286790;28;20072;-59
2022/07/15 02:20:38;;;;;;;4.35;1.42;;;;;;;;;;8286979;28;20017;-60
2022/07/15 02:24:39;;;;;;;3.35;1.38;;;;;;;;;;8284182;28;20021;-60
2022/07/15 02:28:39;;;;;;;4.15;1.45;;;;;;;;;;8284831;28;20029;-58
2022/07/15 02:32:40;;;;;;;3.75;1.50;;;;;;;;;;8283016;28;20041;-59
2022/07/15 02:36:40;;;;;;;3.22;1.50;;;;;;;;;;8284886;28;20045;-60
2022/07/15 02:40:41;;;;;;;6.80;1.73;;;;;;;;;;8281951;28;20033;-59
2022/07/15 02:44:41;;;;;;;2.90;1.40;;;;;;;;;;8285994;28;20053;-60
2022/07/15 02:48:41;;;;;;;5.45;1.40;;;;;;;;;;8285120;28;20037;-60
2022/07/15 02:52:42;;;;;;;5.07;1.40;;;;;;;;;;8287293;28;20036;-59
2022/07/15 02:56:43;;;;;;;3.80;1.55;;;;;;;;;;8284569;28;20036;-58
2022/07/15 03:00:43;;;;;;;3.50;1.50;;;;;;;;;;8282934;28;20045;-59
2022/07/15 03:04:44;;;;;;;4.23;1.50;;;;;;;;;;8284794;28;20037;-59
2022/07/15 03:08:46;;;;;;;2.65;1.42;;;;;;;;;;8283764;28;20613;-58
2022/07/15 03:12:47;;;;;;;3.33;1.40;;;;;;;;;;8284648;28;20075;-59
2022/07/15 03:16:47;;;;;;;6.50;1.67;;;;;;;;;;8283986;28;20743;-58
2022/07/15 03:20:47;;;;;;;5.45;1.50;;;;;;;;;;8283160;28;20091;-59
2022/07/15 03:24:48;;;;;;;3.78;1.52;;;;;;;;;;8284720;28;20116;-58
2022/07/15 03:28:48;;;;;;;1.85;1.27;;;;;;;;;;8289168;28;20072;-59
2022/07/15 03:32:48;;;;;;;2.58;1.40;;;;;;;;;;8285982;28;20041;-58
2022/07/15 03:36:48;;;;;;;3.30;1.48;;;;;;;;;;8286709;28;20029;-59
2022/07/15 03:40:49;;;;;;;2.60;1.08;;;;;;;;;;8287088;28;20021;-59
2022/07/15 03:44:50;;;;;;;3.13;1.40;;;;;;;;;;8285373;28;20025;-60
2022/07/15 03:48:50;;;;;;;4.17;1.37;;;;;;;;;;8282872;28;20041;-59
2022/07/15 03:52:50;;;;;;;2.70;1.40;;;;;;;;;;8283820;28;20974;-59
2022/07/15 03:56:50;;;;;;;4.90;1.57;;;;;;;;;;8282601;28;20406;-58
2022/07/15 04:00:51;;;;;;;3.67;1.50;;;;;;;;;;8281219;28;20057;-58
2022/07/15 04:04:52;;;;;;;3.55;1.40;;;;;;;;;;8281120;28;20026;-59
2022/07/15 04:08:52;;;;;;;2.33;1.42;;;;;;;;;;8282862;28;20032;-58
2022/07/15 04:12:52;;;;;;;3.20;1.40;;;;;;;;;;8280659;28;20934;-58
2022/07/15 04:16:53;;;;;;;3.13;1.55;;;;;;;;;;8282027;28;20038;-60
2022/07/15 04:20:53;;;;;;;3.85;1.60;;;;;;;;;;8284571;28;20033;-59
2022/07/15 04:24:53;;;;;;;4.03;1.30;;;;;;;;;;8313246;28;20017;-59
2022/07/15 04:28:54;;;;;;;2.33;1.27;;;;;;;;;;8282271;28;20033;-59
2022/07/15 04:32:54;;;;;;;2.80;1.23;;;;;;;;;;8280582;28;20141;-59
2022/07/15 04:36:54;;;;;;;4.05;1.20;;;;;;;;;;8285232;28;20033;-60
2022/07/15 04:40:54;;;;;;;2.80;1.27;;;;;;;;;;8283241;28;20944;-59
2022/07/15 04:44:54;;;;;;;2.42;1.00;;;;;;;;;;8282378;28;20533;-59
2022/07/15 04:53:13;;;;;;;5.88;1.42;;;;;;;;;;8312229;28;20048;-60
2022/07/15 04:57:14;;;;;;;3.78;1.33;;;;;;;;;;8330325;28;20029;-59
2022/07/15 05:01:14;;;;;;;5.00;1.27;;;;;;;;;;8313146;28;20561;-59
2022/07/15 05:05:33;;;;;;;2.90;1.47;;;;;;;;;;8325748;28;20259;-59
2022/07/15 05:09:33;;;;;;;6.80;1.42;;;;;;;;;;8316659;28;21150;-59
2022/07/15 05:13:35;;;;;;;3.05;1.35;;;;;;;;;;8314726;28;20049;-59
2022/07/15 05:17:36;;;;;;;4.20;1.38;;;;;;;;;;8290662;28;20372;-59
2022/07/15 05:21:36;;;;;;;3.83;1.38;;;;;;;;;;8283283;28;20030;-59
2022/07/15 05:25:36;;;;;;;4.23;1.50;;;;;;;;;;8288369;28;20139;-59
2022/07/15 05:29:36;;;;;;;1.50;1.20;;;;;;;;;;8289361;28;20268;-59
2022/07/15 05:33:37;;;;;;;4.03;1.52;;;;;;;;;;8285323;28;20040;-59
2022/07/15 05:37:39;;;;;;;2.83;1.20;;;;;;;;;;8286818;28;20033;-59
2022/07/15 05:41:39;;;;;;;4.20;1.30;;;;;;;;;;8287172;28;20013;-60
2022/07/15 05:45:39;;;;;;;4.20;1.20;;;;;;;;;;8285664;28;20220;-61
2022/07/15 05:49:41;;;;;;;3.67;1.50;;;;;;;;;;8289773;28;20033;-60
2022/07/15 05:53:41;;;;;;;1.75;1.27;;;;;;;;;;8289199;28;20026;-59
2022/07/15 05:57:41;;;;;;;2.50;1.40;;;;;;;;;;8286893;28;20550;-59
2022/07/15 06:01:41;;;;;;;4.43;1.40;;;;;;;;;;8287002;28;20033;-60
2022/07/15 06:05:43;;;;;;;3.53;1.40;;;;;;;;;;8282849;28;20022;-60
2022/07/15 06:09:43;;;;;;;3.35;1.20;;;;;;;;;;8288706;28;20021;-60
2022/07/15 06:13:43;;;;;;;1.92;1.10;;;;;;;;;;8284954;28;20169;-60
2022/07/15 06:17:44;;;;;;;3.00;1.40;;;;;;;;;;8283612;28;20470;-60
2022/07/15 06:21:44;;;;;;;4.53;1.50;;;;;;;;;;8285484;28;20639;-60
2022/07/15 06:25:44;;;;;;;7.65;1.50;;;;;;;;;;8284484;28;20745;-60
2022/07/15 06:29:45;;;;;;;4.32;1.33;;;;;;;;;;8286155;28;20116;-60
2022/07/15 06:33:45;;;;;;;4.63;1.30;;;;;;;;;;8281971;28;20052;-58
2022/07/15 06:37:46;;;;;;;4.97;1.48;;;;;;;;;;8283657;28;20033;-58
2022/07/15 06:41:46;;;;;;;2.17;1.20;;;;;;;;;;8286299;28;20143;-58
2022/07/15 06:45:48;;;;;;;4.25;1.30;;;;;;;;;;8288254;28;20043;-58
2022/07/15 06:49:49;;;;;;;4.70;1.30;;;;;;;;;;8278836;28;20065;-58
2022/07/15 06:53:49;;;;;;;4.90;1.30;;;;;;;;;;8282079;28;20267;-58
2022/07/15 06:57:50;;;;;;;4.60;1.42;;;;;;;;;;8280570;28;20249;-58
2022/07/15 07:01:50;;;;;;;2.77;1.20;;;;;;;;;;8282178;28;20495;-59
2022/07/15 07:05:50;;;;;;;2.65;1.20;;;;;;;;;;8279874;28;20478;-58
2022/07/15 07:09:50;;;;;;;2.85;1.10;;;;;;;;;;8281441;28;20613;-59
2022/07/15 07:13:51;;;;;;;2.58;1.17;;;;;;;;;;8278756;28;20026;-58
2022/07/15 07:17:51;;;;;;;5.25;1.30;;;;;;;;;;8279168;28;20042;-58
2022/07/15 07:21:51;;;;;;;2.45;1.15;;;;;;;;;;8285368;28;20041;-58
2022/07/15 07:25:52;;;;;;;5.63;1.37;;;;;;;;;;8281542;28;20045;-58
2022/07/15 07:29:53;;;;;;;2.72;1.30;;;;;;;;;;8280385;28;20366;-59
2022/07/15 07:33:53;;;;;;;4.95;1.75;;;;;;;;;;8281296;28;20034;-58
2022/07/15 07:37:54;;;;;;;2.40;1.10;;;;;;;;;;8280233;28;20160;-59
2022/07/15 07:41:54;;;;;;;4.30;1.30;;;;;;;;;;8279962;28;20109;-59
2022/07/15 07:45:54;;;;;;;3.60;1.20;;;;;;;;;;8276341;28;20044;-58
2022/07/15 07:49:54;;;;;;;5.32;1.48;;;;;;;;;;8281537;28;20373;-59
2022/07/15 07:53:56;;;;;;;3.58;1.52;;;;;;;;;;8280682;28;20017;-59
2022/07/15 07:57:57;;;;;;;4.43;1.33;;;;;;;;;;8280033;28;22024;-60
2022/07/15 08:01:57;;;;;;;4.00;1.52;;;;;;;;;;8281520;28;20513;-60
2022/07/15 08:05:58;;;;;;;2.20;1.13;;;;;;;;;;8278444;28;20014;-60
2022/07/15 08:09:58;;;;;;;4.90;1.20;;;;;;;;;;8281854;28;20028;-60
2022/07/15 08:13:59;;;;;;;5.20;1.42;;;;;;;;;;8279135;28;20410;-59
2022/07/15 08:18:01;;;;;;;3.25;1.30;;;;;;;;;;8278504;28;20037;-60
2022/07/15 08:22:01;;;;;;;3.28;1.38;;;;;;;;;;8280002;28;20044;-60
2022/07/15 08:26:01;;;;;;;12.32;1.60;;;;;;;;;;8275340;28;20028;-60
2022/07/15 08:30:02;;;;;;;3.60;1.30;;;;;;;;;;8280676;28;20026;-60
2022/07/15 08:34:03;;;;;;;3.35;1.45;;;;;;;;;;8315214;28;20128;-60
2022/07/15 08:38:06;;;;;;;5.60;1.70;;;;;;;;;;8311180;28;20440;-60
2022/07/15 08:42:06;;;;;;;4.70;1.70;;;;;;;;;;8311452;28;20297;-60
2022/07/15 08:46:07;;;;;;;2.15;1.50;;;;;;;;;;8301771;28;20036;-60
2022/07/15 08:50:12;;;;;;;3.35;1.38;;;;;;;;;;8278250;28;20095;-60
2022/07/15 08:54:13;;;;;;;7.90;1.80;;;;;;;;;;8282379;28;20434;-59
2022/07/15 08:58:13;;;;;;;3.20;1.40;;;;;;;;;;8282543;28;20048;-59
2022/07/15 09:02:14;;;;;;;3.63;1.77;;;;;;;;;;8305067;28;20743;-60
2022/07/15 09:06:34;;;;;;;3.13;1.90;;;;;;;;;;8321480;28;20025;-59
2022/07/15 09:10:54;;;;;;;3.45;1.60;;;;;;;;;;8319579;28;20041;-61
2022/07/15 09:14:54;;;;;;;6.07;1.77;;;;;;;;;;8322178;28;20037;-60
2022/07/15 09:18:56;;;;;;;3.10;1.60;;;;;;;;;;8318365;28;20610;-60
2022/07/15 09:22:56;;;;;;;5.38;2.00;;;;;;;;;;8320899;28;20017;-60
2022/07/15 09:26:56;;;;;;;4.60;1.48;;;;;;;;;;8318818;28;20032;-59
2022/07/15 09:39:52;;;;;;;2.42;1.30;;;;;;;;;;8286408;28;20126;-60
2022/07/15 09:44:01;;;;;;;4.70;1.50;;;;;;;;;;8288748;28;20025;-60
2022/07/15 09:48:08;;;;;;;3.28;1.50;;;;;;;;;;8285090;28;20415;-60
2022/07/15 09:52:09;;;;;;;3.45;1.50;;;;;;;;;;8288762;28;20037;-60
2022/07/15 09:56:11;;;;;;;3.03;1.50;;;;;;;;;;8285958;28;20030;-59
2022/07/15 10:00:11;;;;;;;3.10;1.67;;;;;;;;;;8285731;28;20434;-60
2022/07/15 10:04:11;;;;;;;3.67;1.70;;;;;;;;;;8285898;28;20554;-60
2022/07/15 10:08:13;;;;;;;3.05;1.63;;;;;;;;;;8288000;28;20211;-59
2022/07/15 10:12:25;;;;;;;3.28;1.70;;;;;;;;;;8286156;28;20033;-60
2022/07/15 10:16:43;;;;;;;4.18;1.90;;;;;;;;;;8284339;28;20107;-60
2022/07/15 10:20:46;;;;;;;3.70;1.70;;;;;;;;;;8285242;28;20067;-60
2022/07/15 10:25:11;;;;;;;2.40;1.63;;;;;;;;;;8287690;28;20095;-60
2022/07/15 10:29:11;;;;;;;4.18;1.95;;;;;;;;;;8285485;28;20045;-59
2022/07/15 10:33:19;;;;;;;3.05;1.80;;;;;;;;;;8298720;28;20125;-60
2022/07/15 10:37:19;;;;;;;1.80;1.60;;;;;;;;;;8285422;28;20529;-60
2022/07/15 10:41:21;;;;;;;3.07;1.73;;;;;;;;;;8283088;28;20033;-61
2022/07/15 10:45:21;;;;;;;3.08;1.67;;;;;;;;;;8287330;28;20056;-59
2022/07/15 10:49:21;;;;;;;5.15;1.98;;;;;;;;;;8284865;28;20025;-59
2022/07/15 10:53:24;;;;;;;3.25;1.80;;;;;;;;;;8284452;28;20021;-60
2022/07/15 10:57:24;;;;;;;;;;;;;;;;;;8284452;28;20037;-60
2022/07/15 11:01:26;;;;;;;2.03;1.40;;;;;;;;;;8282848;28;20378;-60
2022/07/15 11:05:26;;;;;;;3.30;1.80;;;;;;;;;;8283467;28;20802;-60
2022/07/15 11:09:45;;;;;;;4.03;2.17;;;;;;;;;;8287518;28;20062;-59
2022/07/15 11:13:46;;;;;;;4.05;2.03;;;;;;;;;;8281553;28;20030;-61
2022/07/15 11:17:49;;;;;;;2.75;1.73;;;;;;;;;;8284378;28;20156;-59
2022/07/15 11:21:50;;;;;;;3.35;1.60;;;;;;;;;;8286993;28;20038;-59
2022/07/15 11:25:50;;;;;;;3.42;1.90;;;;;;;;;;8287026;28;20128;-60
2022/07/15 11:29:52;;;;;;;3.73;1.70;;;;;;;;;;8284754;28;20072;-60
2022/07/15 11:33:53;;;;;;;2.13;1.45;;;;;;;;;;8280229;28;20940;-59
2022/07/15 11:37:58;;;;;;;3.40;1.70;;;;;;;;;;8282922;28;20068;-60
2022/07/15 11:46:17;;;;;;;7.35;1.65;;;;;;;;;;8282336;28;20108;-60
2022/07/15 11:50:19;;;;;;;4.40;1.98;;;;;;;;;;8283435;28;20025;-60
2022/07/15 11:54:19;;;;;;;5.82;1.92;;;;;;;;;;8282234;28;20033;-59
2022/07/15 11:58:27;;;;;;;2.10;1.60;;;;;;;;;;8284968;28;20173;-60
2022/07/15 12:02:28;;;;;;;4.32;2.00;;;;;;;;;;8282043;28;20022;-60
2022/07/15 12:06:32;;;;;;;2.23;1.80;;;;;;;;;;8282447;28;20087;-60
2022/07/15 12:10:37;;;;;;;3.65;1.90;;;;;;;;;;8284498;28;20348;-60
2022/07/15 12:14:38;;;;;;;2.42;1.65;;;;;;;;;;8287171;28;20026;-59
2022/07/15 12:18:38;;;;;;;3.93;1.77;;;;;;;;;;8284575;28;20050;-59
2022/07/15 12:22:58;;;;;;;3.72;1.90;;;;;;;;;;8284200;28;20271;-59
2022/07/15 12:26:58;;;;;;;3.47;1.70;;;;;;;;;;8280115;28;20034;-59
2022/07/15 12:30:59;;;;;;;3.45;1.70;;;;;;;;;;8283987;28;20137;-59
2022/07/15 12:35:00;;;;;;;3.23;1.70;;;;;;;;;;8282358;28;20068;-60
2022/07/15 12:39:09;;;;;;;3.08;1.65;;;;;;;;;;8285214;28;20291;-60
2022/07/15 12:43:10;;;;;;;3.53;1.73;;;;;;;;;;8282429;28;20025;-61
2022/07/15 12:47:10;;;;;;;4.38;1.55;;;;;;;;;;8283412;28;21037;-61
2022/07/15 12:51:10;;;;;;;3.75;1.70;;;;;;;;;;8283311;28;20037;-60
2022/07/15 12:55:12;;;;;;;3.00;1.60;;;;;;;;;;8282696;28;20124;-60
2022/07/15 12:59:13;;;;;;;3.88;1.60;;;;;;;;;;8282092;28;20425;-60
2022/07/15 13:03:17;;;;;;;2.47;1.73;;;;;;;;;;8280500;28;20572;-60
2022/07/15 13:07:17;;;;;;;3.25;1.60;;;;;;;;;;8283899;28;20025;-60
2022/07/15 13:11:18;;;;;;;3.05;1.80;;;;;;;;;;8284760;28;20038;-60
2022/07/15 13:15:19;;;;;;;4.82;1.85;;;;;;;;;;8281909;28;20041;-59
2022/07/15 13:19:19;;;;;;;2.72;1.65;;;;;;;;;;8278500;28;20025;-60
2022/07/15 13:23:19;;;;;;;2.53;1.48;;;;;;;;;;8281409;28;20029;-60
2022/07/15 13:27:19;;;;;;;3.53;1.83;;;;;;;;;;8283071;28;20068;-60
2022/07/15 13:31:19;;;;;;;2.70;1.77;;;;;;;;;;8282800;28;20057;-59
2022/07/15 13:35:20;;;;;;;4.45;1.60;;;;;;;;;;8282195;28;20029;-59
2022/07/15 13:39:20;;;;;;;3.93;1.70;;;;;;;;;;8283756;28;20578;-60
2022/07/15 13:43:20;;;;;;;6.40;1.87;;;;;;;;;;8283345;28;20647;-61
2022/07/15 13:47:20;;;;;;;2.77;1.93;;;;;;;;;;8288386;28;20392;-60
2022/07/15 13:51:23;;;;;;;4.23;1.80;;;;;;;;;;8288199;28;20055;-59
2022/07/15 13:55:24;;;;;;;3.70;1.75;;;;;;;;;;8287672;28;20030;-59
2022/07/15 13:59:24;;;;;;;4.55;1.88;;;;;;;;;;8287545;28;20029;-61
2022/07/15 14:03:24;;;;;;;2.27;1.80;;;;;;;;;;8287854;28;20125;-59
2022/07/15 14:07:25;;;;;;;4.70;2.05;;;;;;;;;;8290494;28;20020;-59
2022/07/15 14:11:25;;;;;;;2.87;1.80;;;;;;;;;;8290044;28;20025;-60
2022/07/15 14:15:25;;;;;;;4.80;1.80;;;;;;;;;;8286652;28;20075;-59
2022/07/15 14:19:25;;;;;;;2.88;1.73;;;;;;;;;;8288196;28;20438;-60
2022/07/15 14:23:25;;;;;;;4.30;1.83;;;;;;;;;;8286199;28;20395;-59
2022/07/15 14:27:26;;;;;;;2.42;2.00;;;;;;;;;;8290780;28;20029;-59
2022/07/15 14:31:26;;;;;;;3.25;1.90;;;;;;;;;;8300620;28;20038;-59
2022/07/15 14:35:26;;;;;;;5.37;2.10;;;;;;;;;;8288112;28;20026;-59
2022/07/15 14:39:27;;;;;;;3.40;1.90;;;;;;;;;;8288608;28;20032;-63
2022/07/15 14:43:27;;;;;;;3.72;1.88;;;;;;;;;;8286595;28;20419;-59
2022/07/15 14:47:27;;;;;;;2.43;1.63;;;;;;;;;;8286739;28;20045;-60
2022/07/15 14:51:28;;;;;;;4.10;2.10;;;;;;;;;;8287382;28;20068;-60
2022/07/15 14:55:29;;;;;;;2.70;1.83;;;;;;;;;;8285852;28;20285;-59
2022/07/15 14:59:29;;;;;;;2.95;1.70;;;;;;;;;;8282890;28;20036;-60
2022/07/15 15:03:30;;;;;;;3.50;1.90;;;;;;;;;;8283548;28;20683;-60
2022/07/15 15:07:30;;;;;;;2.00;1.80;;;;;;;;;;8283493;28;20022;-60
2022/07/15 15:11:30;;;;;;;4.88;1.90;;;;;;;;;;8284964;28;20021;-60
2022/07/15 15:15:31;;;;;;;4.85;2.00;;;;;;;;;;8283502;28;20041;-59
2022/07/15 15:19:31;;;;;;;2.53;1.70;;;;;;;;;;8284888;28;20018;-60
2022/07/15 15:23:31;;;;;;;2.40;1.60;;;;;;;;;;8283931;28;20690;-60
2022/07/15 15:27:32;;;;;;;2.13;1.80;;;;;;;;;;8283273;28;20342;-60
2022/07/15 15:31:32;;;;;;;2.58;1.90;;;;;;;;;;8281960;28;20038;-60
2022/07/15 15:35:32;;;;;;;4.20;1.90;;;;;;;;;;8282321;28;20030;-60
2022/07/15 15:39:32;;;;;;;2.55;1.73;;;;;;;;;;8284385;28;20091;-60
2022/07/15 15:43:33;;;;;;;5.28;1.80;;;;;;;;;;8280924;28;20432;-60
2022/07/15 15:47:33;;;;;;;3.15;1.73;;;;;;;;;;8281653;28;20042;-60
2022/07/15 15:51:33;;;;;;;3.38;1.80;;;;;;;;;;8279386;28;20434;-61
2022/07/15 15:55:33;;;;;;;3.95;1.70;;;;;;;;;;8281381;28;20078;-61
2022/07/15 15:59:34;;;;;;;3.23;1.67;;;;;;;;;;8277852;28;20033;-60
2022/07/15 16:03:34;;;;;;;3.47;1.70;;;;;;;;;;8279722;28;20061;-61
2022/07/15 16:07:34;;;;;;;3.13;1.60;;;;;;;;;;8280406;28;20111;-61
2022/07/15 16:11:34;;;;;;;7.00;1.75;;;;;;;;;;8313433;28;20048;-60
2022/07/15 16:15:35;;;;;;;3.13;1.60;;;;;;;;;;8280793;28;20498;-61
2022/07/15 16:19:35;;;;;;;2.63;1.42;;;;;;;;;;8282073;28;20025;-61
2022/07/15 16:23:35;;;;;;;2.33;1.55;;;;;;;;;;8281623;28;20029;-61
2022/07/15 16:27:35;;;;;;;1.42;1.30;;;;;;;;;;8280072;28;20037;-60
2022/07/15 16:31:36;;;;;;;2.87;1.40;;;;;;;;;;8292551;28;20032;-60
2022/07/15 16:35:36;;;;;;;5.43;1.60;;;;;;;;;;8311845;28;20033;-61
2022/07/15 16:39:36;;;;;;;2.70;1.30;;;;;;;;;;8313150;28;20163;-60
2022/07/15 16:43:37;;;;;;;2.05;1.48;;;;;;;;;;8312311;28;20853;-61
2022/07/15 16:47:37;;;;;;;2.60;1.53;;;;;;;;;;8313653;28;20029;-61
2022/07/15 16:51:37;;;;;;;3.00;1.33;;;;;;;;;;8316306;28;20094;-60
2022/07/15 16:55:38;;;;;;;3.42;1.50;;;;;;;;;;8316218;28;20029;-60
2022/07/15 16:59:41;;;;;;;1.65;1.23;;;;;;;;;;8315463;28;20025;-60
2022/07/15 17:03:41;;;;;;;3.65;1.40;;;;;;;;;;8282292;28;20034;-60
2022/07/15 17:07:41;;;;;;;2.25;1.45;;;;;;;;;;8280289;28;20612;-60
2022/07/15 17:11:41;;;;;;;2.93;1.47;;;;;;;;;;8280457;28;20025;-60
2022/07/15 17:15:42;;;;;;;2.85;1.25;;;;;;;;;;8279688;28;20068;-60
2022/07/15 17:19:42;;;;;;;3.17;1.40;;;;;;;;;;8282406;28;20114;-61
2022/07/15 17:23:42;;;;;;;2.87;1.30;;;;;;;;;;8287189;28;20120;-59
2022/07/15 17:27:42;;;;;;;2.70;1.50;;;;;;;;;;8283938;28;20026;-60
2022/07/15 17:31:43;;;;;;;1.70;1.33;;;;;;;;;;8286908;28;21020;-60
2022/07/15 17:35:43;;;;;;;4.05;1.30;;;;;;;;;;8286934;28;20076;-60
2022/07/15 17:39:43;;;;;;;1.65;1.23;;;;;;;;;;8287084;28;20032;-60
2022/07/15 17:43:44;;;;;;;4.93;1.30;;;;;;;;;;8288107;28;20021;-61
2022/07/15 17:47:44;;;;;;;3.25;1.40;;;;;;;;;;8285303;28;20034;-59
2022/07/15 17:51:44;;;;;;;2.58;1.30;;;;;;;;;;8286391;28;20807;-60
2022/07/15 17:55:44;;;;;;;7.93;1.17;;;;;;;;;;8286393;28;20033;-60
2022/07/15 17:59:46;;;;;;;1.70;1.20;;;;;;;;;;8290164;28;20660;-60
2022/07/15 18:03:46;;;;;;;1.98;1.50;;;;;;;;;;8285458;28;20053;-61
2022/07/15 18:07:46;;;;;;;2.38;1.40;;;;;;;;;;8288207;28;20020;-61
2022/07/15 18:11:46;;;;;;;4.55;1.63;;;;;;;;;;8286730;28;20034;-61
2022/07/15 18:15:47;;;;;;;5.15;1.63;;;;;;;;;;8287676;28;20486;-60
2022/07/15 18:19:47;;;;;;;2.17;1.30;;;;;;;;;;8289051;28;20037;-60
2022/07/15 18:23:47;;;;;;;4.45;1.40;;;;;;;;;;8286960;28;20026;-61
2022/07/15 18:27:47;;;;;;;2.13;1.40;;;;;;;;;;8285919;28;20055;-60
2022/07/15 18:31:49;;;;;;;6.70;1.50;;;;;;;;;;8285660;28;20729;-61
2022/07/15 18:35:49;;;;;;;5.03;1.50;;;;;;;;;;8287764;28;20095;-60
2022/07/15 18:39:49;;;;;;;3.00;1.35;;;;;;;;;;8288828;28;20025;-61
2022/07/15 18:43:50;;;;;;;2.73;1.20;;;;;;;;;;8283399;28;20025;-61
2022/07/15 18:47:51;;;;;;;1.50;1.20;;;;;;;;;;8284310;28;21008;-60
2022/07/15 18:51:51;;;;;;;5.10;1.20;;;;;;;;;;8286886;28;20091;-61
2022/07/15 18:55:51;;;;;;;12.05;1.50;;;;;;;;;;8284012;28;20608;-61
2022/07/15 18:59:51;;;;;;;2.67;1.20;;;;;;;;;;8285460;28;20025;-60
2022/07/15 19:03:52;;;;;;;12.77;1.88;;;;;;;;;;8284592;28;20281;-62
2022/07/15 19:07:52;;;;;;;4.93;1.35;;;;;;;;;;8285833;28;20025;-61
2022/07/15 19:11:52;;;;;;;1.97;1.30;;;;;;;;;;8285537;28;20044;-60
2022/07/15 19:15:52;;;;;;;2.50;1.40;;;;;;;;;;8284519;28;20819;-60
2022/07/15 19:19:52;;;;;;;8.63;1.40;;;;;;;;;;8285180;28;20125;-60
2022/07/15 19:23:53;;;;;;;8.27;1.70;;;;;;;;;;8283477;28;20404;-61
2022/07/15 19:27:53;;;;;;;7.20;1.92;;;;;;;;;;8283870;28;20109;-60
2022/07/15 19:31:54;;;;;;;5.72;1.35;;;;;;;;;;8279488;28;20034;-60
2022/07/15 19:35:54;;;;;;;5.07;1.35;;;;;;;;;;8283741;28;20025;-60
2022/07/15 19:39:54;;;;;;;3.37;1.30;;;;;;;;;;8279953;28;20029;-64
2022/07/15 19:43:54;;;;;;;1.83;1.20;;;;;;;;;;8276750;28;20827;-60
2022/07/15 19:47:55;;;;;;;6.13;1.30;;;;;;;;;;8280271;28;20094;-59
2022/07/15 19:51:55;;;;;;;2.45;1.20;;;;;;;;;;8279007;28;20173;-60
2022/07/15 19:55:56;;;;;;;2.43;1.40;;;;;;;;;;8278721;28;20059;-60
2022/07/15 20:04:15;;;;;;;1.95;1.48;;;;;;;;;;8276798;28;20696;-61
2022/07/15 20:08:15;;;;;;;2.95;1.30;;;;;;;;;;8273742;28;20573;-60
2022/07/15 20:12:16;;;;;;;1.60;1.20;;;;;;;;;;8275026;28;20249;-60
2022/07/15 20:16:16;;;;;;;4.65;1.50;;;;;;;;;;8274313;28;20045;-59
2022/07/15 20:20:17;;;;;;;4.13;1.48;;;;;;;;;;8276498;28;20098;-60
2022/07/15 20:24:17;;;;;;;2.35;1.40;;;;;;;;;;8278049;28;20320;-60
2022/07/15 20:28:18;;;;;;;2.08;1.38;;;;;;;;;;8278264;28;20796;-61
2022/07/15 20:32:19;;;;;;;4.10;1.40;;;;;;;;;;8273541;28;20030;-60
2022/07/15 20:36:19;;;;;;;3.22;1.20;;;;;;;;;;8276978;28;20029;-59
2022/07/15 20:40:21;;;;;;;2.60;1.25;;;;;;;;;;8271576;28;20034;-60
2022/07/15 20:44:22;;;;;;;1.50;1.40;;;;;;;;;;8269710;28;20017;-59
2022/07/15 20:48:22;;;;;;;1.52;1.35;;;;;;;;;;8272261;28;20843;-60
2022/07/15 20:52:22;;;;;;;1.67;1.30;;;;;;;;;;8276261;28;20037;-59
2022/07/15 20:56:22;;;;;;;3.95;1.40;;;;;;;;;;8276384;28;20025;-59
2022/07/15 21:00:23;;;;;;;1.77;1.35;;;;;;;;;;8274756;28;20164;-59
2022/07/15 21:04:23;;;;;;;3.53;1.40;;;;;;;;;;8275202;28;20116;-61
2022/07/15 21:08:23;;;;;;;2.90;1.33;;;;;;;;;;8273792;28;20288;-59
2022/07/15 21:12:24;;;;;;;3.97;1.48;;;;;;;;;;8275096;28;20026;-59
2022/07/15 21:16:25;;;;;;;2.70;1.50;;;;;;;;;;8272541;28;20562;-59
2022/07/15 21:20:25;;;;;;;3.05;1.40;;;;;;;;;;8275688;28;20288;-59
2022/07/15 21:28:44;;;;;;;7.35;1.55;;;;;;;;;;8280136;28;20493;-60
2022/07/15 21:32:44;;;;;;;2.55;1.20;;;;;;;;;;8297809;28;20061;-59
2022/07/15 21:36:45;;;;;;;2.47;1.38;;;;;;;;;;8310558;28;20053;-59
2022/07/15 21:40:45;;;;;;;2.10;1.30;;;;;;;;;;8308726;28;20066;-59
2022/07/15 21:44:45;;;;;;;2.67;1.45;;;;;;;;;;8309441;28;20025;-59
2022/07/15 21:48:45;;;;;;;1.60;1.37;;;;;;;;;;8307902;28;20095;-60
2022/07/15 21:52:46;;;;;;;1.88;1.48;;;;;;;;;;8308843;28;20872;-59
2022/07/15 21:56:46;;;;;;;5.40;2.03;;;;;;;;;;8311760;28;20051;-60
2022/07/15 22:00:46;;;;;;;4.15;1.40;;;;;;;;;;8303777;28;20559;-61
2022/07/15 22:04:47;;;;;;;1.52;1.30;;;;;;;;;;8275991;28;20478;-60
2022/07/15 22:08:47;;;;;;;4.93;1.43;;;;;;;;;;8283365;28;20021;-61
2022/07/15 22:12:47;;;;;;;2.23;1.37;;;;;;;;;;8283409;28;20033;-61
2022/07/15 22:16:49;;;;;;;2.07;1.43;;;;;;;;;;8287792;28;20311;-61
2022/07/15 22:20:49;;;;;;;3.70;1.35;;;;;;;;;;8287349;28;20060;-61
2022/07/15 22:24:49;;;;;;;2.20;1.40;;;;;;;;;;8288028;28;20032;-61
2022/07/15 22:28:49;;;;;;;2.05;1.55;;;;;;;;;;8288122;28;20110;-61
2022/07/15 22:32:50;;;;;;;3.42;1.50;;;;;;;;;;8285322;28;20042;-61
2022/07/15 22:36:50;;;;;;;3.20;1.30;;;;;;;;;;8286974;28;20029;-61
2022/07/15 22:40:50;;;;;;;4.82;1.33;;;;;;;;;;8287745;28;20071;-61
2022/07/15 22:44:50;;;;;;;5.35;1.48;;;;;;;;;;8286849;28;20033;-62
2022/07/15 22:48:50;;;;;;;3.42;1.52;;;;;;;;;;8286077;28;20038;-61
2022/07/15 22:52:51;;;;;;;2.40;1.40;;;;;;;;;;8285457;28;20505;-61
2022/07/15 22:56:52;;;;;;;4.07;1.30;;;;;;;;;;8285495;28;20064;-62
2022/07/15 23:00:52;;;;;;;3.03;1.40;;;;;;;;;;8284709;28;20157;-61
2022/07/15 23:04:53;;;;;;;9.20;1.77;;;;;;;;;;8285984;28;21036;-61
2022/07/15 23:08:53;;;;;;;3.55;1.58;;;;;;;;;;8286347;28;20057;-61
2022/07/15 23:12:53;;;;;;;2.70;1.40;;;;;;;;;;8285777;28;20461;-61
2022/07/15 23:16:54;;;;;;;6.38;1.27;;;;;;;;;;8282737;28;20045;-61
2022/07/15 23:20:54;;;;;;;4.65;1.35;;;;;;;;;;8283733;28;20716;-61
2022/07/15 23:24:54;;;;;;;3.33;1.40;;;;;;;;;;8285455;28;20032;-62
2022/07/15 23:28:54;;;;;;;1.42;1.30;;;;;;;;;;8287048;28;20099;-61
2022/07/15 23:32:54;;;;;;;1.35;1.20;;;;;;;;;;8284668;28;20041;-62
2022/07/15 23:36:55;;;;;;;5.35;1.55;;;;;;;;;;8286526;28;20072;-62
2022/07/15 23:40:55;;;;;;;1.85;1.40;;;;;;;;;;8284042;28;20124;-62
2022/07/15 23:44:56;;;;;;;3.03;1.63;;;;;;;;;;8284760;28;20510;-61
2022/07/15 23:48:56;;;;;;;2.33;1.27;;;;;;;;;;8285311;28;20951;-61
2022/07/15 23:52:56;;;;;;;1.58;1.13;;;;;;;;;;8284048;28;20481;-61
2022/07/15 23:56:57;;;;;;;3.92;1.10;;;;;;;;;;8282004;28;20029;-61
